Time;durP1;ratioP1;P1;durP2;ratioP2;P2;SDS_P1;SDS_P2;PMS_P1;PMS_P2;Temp;Humidity;BMP_temperature;BMP_pressure;BME280_temperature;BME280_humidity;BME280_pressure;Samples;Min_cycle;Max_cycle;Signal;HPM_P1;HPM_P2
2022/07/10 00:00:50;;;;;;;2.15;1.15;;;;;;;17.26;69.45;98846.62;1697223;83;21027;-66
2022/07/10 00:03:17;;;;;;;2.05;1.47;;;;;;;17.26;69.41;98849.30;1705906;83;21091;-66
2022/07/10 00:05:43;;;;;;;1.22;1.10;;;;;;;17.23;69.39;98847.89;1696163;83;20915;-66
2022/07/10 00:08:10;;;;;;;1.87;1.57;;;;;;;17.21;69.32;98841.94;1690528;83;21270;-67
2022/07/10 00:10:36;;;;;;;1.92;1.40;;;;;;;17.19;69.30;98846.72;1695429;83;20953;-66
2022/07/10 00:13:03;;;;;;;1.92;1.40;;;;;;;17.13;69.21;98839.56;1701457;83;20923;-67
2022/07/10 00:15:31;;;;;;;4.67;1.57;;;;;;;17.07;69.10;98840.49;1702482;83;20922;-65
2022/07/10 00:17:58;;;;;;;2.55;1.40;;;;;;;17.03;69.01;98838.46;1704326;83;20923;-65
2022/07/10 00:20:24;;;;;;;1.92;1.60;;;;;;;17.00;68.93;98835.70;1704114;83;21149;-66
2022/07/10 00:22:51;;;;;;;2.92;1.30;;;;;;;16.98;68.83;98833.77;1697337;83;20946;-65
2022/07/10 00:25:17;;;;;;;2.15;1.80;;;;;;;16.96;68.70;98835.87;1694624;83;20988;-66
2022/07/10 00:27:44;;;;;;;1.72;1.40;;;;;;;16.94;68.58;98837.15;1690211;83;21073;-65
2022/07/10 00:30:11;;;;;;;1.92;1.30;;;;;;;16.92;68.67;98833.88;1690470;84;20910;-66
2022/07/10 00:32:37;;;;;;;1.80;1.50;;;;;;;16.88;68.72;98833.50;1693258;84;21278;-66
2022/07/10 00:35:06;;;;;;;3.67;1.50;;;;;;;16.86;68.65;98836.94;1688396;84;20864;-65
2022/07/10 00:37:33;;;;;;;1.77;1.60;;;;;;;16.85;68.61;98834.46;1687180;83;21010;-66
2022/07/10 00:39:59;;;;;;;2.50;1.50;;;;;;;16.83;68.49;98830.67;1689617;84;20967;-66
2022/07/10 00:42:26;;;;;;;1.52;1.20;;;;;;;16.79;68.43;98835.38;1690713;84;21070;-65
2022/07/10 00:44:53;;;;;;;2.33;1.62;;;;;;;16.75;68.25;98830.97;1687293;84;21229;-67
2022/07/10 00:47:19;;;;;;;2.37;1.40;;;;;;;16.69;68.24;98823.80;1689805;84;21188;-66
2022/07/10 00:49:47;;;;;;;1.62;1.42;;;;;;;16.63;68.32;98820.15;1693437;83;21453;-67
2022/07/10 00:52:16;;;;;;;2.87;1.45;;;;;;;16.59;68.38;98818.14;1692937;84;21164;-66
2022/07/10 00:54:50;;;;;;;1.82;1.30;;;;;;;16.58;68.16;98813.30;1694376;83;21485;-65
2022/07/10 00:57:16;;;;;;;3.55;2.12;;;;;;;16.58;67.83;98809.27;1687729;84;21153;-66
2022/07/10 00:59:47;;;;;;;6.62;4.80;;;;;;;16.62;67.44;98802.94;1686663;84;20962;-66
2022/07/10 01:02:14;;;;;;;11.78;9.20;;;;;;;16.67;66.73;98803.08;1692353;83;21549;-65
2022/07/10 01:04:42;;;;;;;15.00;10.32;;;;;;;16.71;66.04;98792.71;1692218;84;21100;-65
2022/07/10 01:07:08;;;;;;;11.48;8.60;;;;;;;16.73;65.55;98802.70;1695114;84;21069;-66
2022/07/10 01:09:35;;;;;;;11.65;8.55;;;;;;;16.76;65.47;98796.36;1689247;84;21907;-66
2022/07/10 01:12:03;;;;;;;10.35;8.75;;;;;;;16.79;65.29;98799.13;1672515;85;20970;-66
2022/07/10 01:14:30;;;;;;;12.88;9.48;;;;;;;16.81;65.10;98796.51;1689440;84;21014;-66
2022/07/10 01:17:00;;;;;;;11.50;8.93;;;;;;;16.82;64.89;98790.06;1688364;84;20946;-66
2022/07/10 01:19:26;;;;;;;9.58;7.78;;;;;;;16.81;64.82;98800.53;1692350;84;21082;-66
2022/07/10 01:21:54;;;;;;;9.18;7.33;;;;;;;16.77;64.93;98797.98;1684772;84;22186;-67
2022/07/10 01:24:20;;;;;;;10.58;7.60;;;;;;;16.72;64.99;98799.70;1688655;84;20999;-66
2022/07/10 01:26:47;;;;;;;8.25;5.47;;;;;;;16.64;65.25;98792.78;1690161;84;20998;-66
2022/07/10 01:29:15;;;;;;;5.62;4.42;;;;;;;16.57;65.47;98792.88;1686174;84;21037;-67
2022/07/10 01:31:42;;;;;;;5.58;3.27;;;;;;;16.52;65.62;98787.84;1691649;84;21061;-66
2022/07/10 01:34:09;;;;;;;4.20;2.77;;;;;;;16.44;65.90;98778.75;1691054;84;21255;-67
2022/07/10 01:36:37;;;;;;;8.23;5.35;;;;;;;16.40;66.12;98772.20;1690193;84;20951;-66
2022/07/10 01:39:05;;;;;;;8.65;6.35;;;;;;;16.40;66.11;98770.86;1691709;84;20914;-66
2022/07/10 01:41:32;;;;;;;9.18;7.17;;;;;;;16.40;66.03;98769.52;1690803;83;20968;-66
2022/07/10 01:43:59;;;;;;;8.08;6.12;;;;;;;16.44;65.86;98766.67;1689811;84;21068;-66
2022/07/10 01:46:25;;;;;;;8.05;6.72;;;;;;;16.48;65.71;98774.56;1696708;84;21373;-66
2022/07/10 01:48:53;;;;;;;7.22;6.00;;;;;;;16.49;65.56;98769.50;1690088;84;21465;-67
2022/07/10 01:51:20;;;;;;;6.87;5.85;;;;;;;16.46;65.56;98768.59;1689300;83;20928;-66
2022/07/10 01:53:46;;;;;;;4.90;4.40;;;;;;;16.39;65.82;98759.81;1692517;84;20974;-65
2022/07/10 01:56:15;;;;;;;4.62;3.62;;;;;;;16.33;65.99;98760.70;1693850;84;20954;-66
2022/07/10 01:58:43;;;;;;;3.20;2.47;;;;;;;16.27;66.17;98758.94;1693947;84;21289;-66
2022/07/10 02:01:10;;;;;;;2.83;2.35;;;;;;;16.23;66.26;98755.05;1686522;84;20938;-66
2022/07/10 02:06:23;;;;;;;2.02;1.82;;;;;;;16.20;66.45;98753.63;1687565;84;20942;-66
2022/07/10 02:08:50;;;;;;;2.92;1.92;;;;;;;16.22;66.35;98746.68;1689975;83;21006;-67
2022/07/10 02:11:17;;;;;;;3.98;2.92;;;;;;;16.23;66.29;98750.50;1686858;84;22063;-67
2022/07/10 02:13:44;;;;;;;3.27;2.75;;;;;;;16.19;66.34;98750.63;1686387;84;21792;-65
2022/07/10 02:16:11;;;;;;;4.80;4.08;;;;;;;16.17;66.36;98747.88;1691559;84;20930;-66
2022/07/10 02:18:39;;;;;;;6.67;4.58;;;;;;;16.18;66.51;98743.64;1693411;84;21001;-66
2022/07/10 02:21:05;;;;;;;5.85;4.92;;;;;;;16.18;66.44;98744.98;1689353;84;20903;-66
2022/07/10 02:23:32;;;;;;;6.08;5.30;;;;;;;16.19;66.51;98747.16;1687596;84;21212;-66
2022/07/10 02:25:59;;;;;;;7.22;5.03;;;;;;;16.19;66.55;98746.61;1694804;83;21635;-66
2022/07/10 02:28:25;;;;;;;8.78;4.87;;;;;;;16.21;66.59;98741.03;1693768;84;21415;-65
2022/07/10 02:30:52;;;;;;;6.00;4.85;;;;;;;16.20;66.52;98738.04;1688823;84;21571;-66
2022/07/10 02:33:18;;;;;;;6.92;5.80;;;;;;;16.20;66.61;98742.06;1687064;84;21078;-67
2022/07/10 02:35:45;;;;;;;8.60;5.60;;;;;;;16.20;66.63;98736.70;1688210;84;21106;-65
2022/07/10 02:38:11;;;;;;;7.25;5.80;;;;;;;16.18;66.69;98741.48;1693243;84;20904;-65
2022/07/10 02:40:40;;;;;;;5.80;5.20;;;;;;;16.17;66.87;98739.82;1692671;83;20952;-66
2022/07/10 02:43:07;;;;;;;6.60;5.25;;;;;;;16.20;66.99;98737.52;1693443;84;20982;-67
2022/07/10 02:45:34;;;;;;;5.90;5.37;;;;;;;16.25;66.99;98739.53;1692309;84;21059;-65
2022/07/10 02:48:00;;;;;;;8.08;5.35;;;;;;;16.26;67.12;98742.01;1692790;84;21265;-65
2022/07/10 02:50:26;;;;;;;6.10;5.28;;;;;;;16.31;67.07;98735.95;1694432;83;20934;-66
2022/07/10 02:52:54;;;;;;;5.95;5.25;;;;;;;16.35;67.03;98739.30;1694579;84;21434;-66
2022/07/10 02:55:21;;;;;;;8.80;5.10;;;;;;;16.40;67.08;98742.67;1690717;84;20981;-66
2022/07/10 02:57:47;;;;;;;6.35;5.15;;;;;;;16.44;66.86;98747.88;1688084;83;20988;-65
2022/07/10 03:00:14;;;;;;;5.53;4.62;;;;;;;16.45;66.88;98742.81;1693101;84;21245;-66
2022/07/10 03:02:40;;;;;;;6.20;4.55;;;;;;;16.46;66.96;98738.55;1697249;84;20948;-66
2022/07/10 03:05:08;;;;;;;4.97;4.47;;;;;;;16.50;66.87;98734.91;1691568;84;21536;-67
2022/07/10 03:07:35;;;;;;;4.55;4.15;;;;;;;16.54;66.78;98733.42;1693971;84;21046;-67
2022/07/10 03:10:02;;;;;;;4.42;3.77;;;;;;;16.54;66.79;98732.09;1690941;84;21076;-66
2022/07/10 03:12:29;;;;;;;3.95;3.62;;;;;;;16.57;66.70;98735.66;1689118;84;21149;-66
2022/07/10 03:14:55;;;;;;;4.10;3.70;;;;;;;16.55;66.54;98731.05;1691088;84;20886;-66
2022/07/10 03:17:22;;;;;;;4.55;3.20;;;;;;;16.53;66.48;98736.63;1694317;84;21013;-66
2022/07/10 03:19:49;;;;;;;6.35;3.47;;;;;;;16.50;66.47;98737.59;1691620;84;20943;-66
2022/07/10 03:22:16;;;;;;;3.40;3.08;;;;;;;16.47;66.64;98748.27;1686735;84;20915;-66
2022/07/10 03:24:46;;;;;;;4.47;3.15;;;;;;;16.47;66.58;98748.27;1693403;84;21160;-66
2022/07/10 03:27:14;;;;;;;3.70;3.40;;;;;;;16.50;66.73;98757.73;1692974;84;20920;-66
2022/07/10 03:29:40;;;;;;;4.50;3.12;;;;;;;16.57;66.89;98759.83;1692541;84;20935;-65
2022/07/10 03:32:08;;;;;;;5.87;2.85;;;;;;;16.65;66.96;98759.52;1692631;83;21007;-66
2022/07/10 03:34:35;;;;;;;4.33;3.10;;;;;;;16.80;67.07;98759.94;1692671;84;21081;-65
2022/07/10 03:37:01;;;;;;;3.52;3.15;;;;;;;17.12;66.66;98760.00;1692764;84;21236;-65
2022/07/10 03:39:28;;;;;;;5.05;3.33;;;;;;;17.59;65.70;98752.06;1691993;84;20917;-68
2022/07/10 03:41:54;;;;;;;5.67;4.05;;;;;;;18.17;64.26;98756.88;1693328;84;20943;-66
2022/07/10 03:44:21;;;;;;;6.37;4.97;;;;;;;18.80;62.67;98745.27;1692780;84;20966;-65
2022/07/10 03:46:47;;;;;;;5.25;4.75;;;;;;;19.45;60.67;98744.34;1692595;84;20943;-66
2022/07/10 03:49:14;;;;;;;4.70;4.22;;;;;;;20.05;58.87;98741.20;1691477;84;21140;-64
2022/07/10 03:51:41;;;;;;;6.67;4.90;;;;;;;20.66;56.76;98740.66;1685047;84;21009;-66
2022/07/10 03:54:07;;;;;;;6.10;5.45;;;;;;;21.15;54.84;98730.66;1684920;84;20947;-66
2022/07/10 03:59:19;;;;;;;7.45;5.40;;;;;;;22.01;51.60;98723.53;1691871;84;21080;-67
2022/07/10 04:01:46;;;;;;;5.17;4.78;;;;;;;22.51;50.43;98727.03;1692895;84;21240;-66
2022/07/10 04:04:13;;;;;;;5.78;4.75;;;;;;;23.08;48.87;98721.52;1694088;84;20985;-67
2022/07/10 04:06:39;;;;;;;8.05;6.87;;;;;;;23.63;47.09;98723.47;1693205;84;20954;-67
2022/07/10 04:09:06;;;;;;;8.78;7.80;;;;;;;24.02;45.58;98714.72;1692537;84;21073;-68
2022/07/10 04:11:33;;;;;;;7.50;6.70;;;;;;;24.45;44.18;98714.09;1692474;84;21524;-66
2022/07/10 04:13:59;;;;;;;8.90;7.25;;;;;;;25.20;42.33;98707.42;1692385;83;21516;-67
2022/07/10 04:16:26;;;;;;;10.15;9.10;;;;;;;25.20;42.33;98707.42;1692981;84;20923;-67
2022/07/10 04:18:53;;;;;;;10.30;9.18;;;;;;;25.65;41.21;98709.78;1692972;84;20962;-67
2022/07/10 04:21:20;;;;;;;12.58;9.03;;;;;;;26.02;40.50;98705.06;1691315;84;21013;-68
2022/07/10 04:23:46;;;;;;;11.50;9.08;;;;;;;26.42;39.85;98701.10;1690184;84;21096;-67
2022/07/10 04:26:13;;;;;;;12.40;10.25;;;;;;;26.95;38.91;98698.52;1696714;84;21148;-66
2022/07/10 04:28:39;;;;;;;10.40;8.95;;;;;;;27.45;37.69;98692.82;1698683;84;20967;-67
2022/07/10 04:31:06;;;;;;;9.45;8.55;;;;;;;27.88;36.88;98692.08;1685311;84;21041;-66
2022/07/10 04:33:34;;;;;;;9.13;7.97;;;;;;;28.30;35.73;98695.13;1697352;84;20932;-68
2022/07/10 04:36:00;;;;;;;8.60;7.62;;;;;;;28.63;34.96;98687.62;1694776;84;20986;-67
2022/07/10 04:38:27;;;;;;;6.92;6.28;;;;;;;28.87;34.35;98691.47;1700965;84;21148;-67
2022/07/10 04:40:53;;;;;;;7.15;5.85;;;;;;;29.10;34.25;98681.62;1694825;83;20994;-67
2022/07/10 04:43:19;;;;;;;7.45;5.72;;;;;;;29.49;33.76;98686.45;1701919;84;20931;-67
2022/07/10 04:45:46;;;;;;;5.72;5.00;;;;;;;29.75;33.13;98681.94;1700081;84;21457;-66
2022/07/10 04:48:12;;;;;;;5.78;5.00;;;;;;;29.62;32.91;98672.45;1693947;84;21452;-66
2022/07/10 04:50:39;;;;;;;6.03;4.90;;;;;;;29.36;33.21;98678.55;1691972;84;21162;-66
2022/07/10 04:53:06;;;;;;;5.33;4.15;;;;;;;29.14;33.53;98674.97;1692682;84;20951;-67
2022/07/10 04:55:33;;;;;;;4.47;4.05;;;;;;;28.91;33.76;98676.07;1697418;84;20936;-66
2022/07/10 04:58:00;;;;;;;5.15;4.10;;;;;;;28.84;34.04;98682.50;1697599;84;21540;-66
2022/07/10 05:00:27;;;;;;;4.42;3.95;;;;;;;28.89;34.03;98679.68;1693827;84;20962;-66
2022/07/10 05:02:53;;;;;;;5.97;4.47;;;;;;;28.86;34.18;98678.92;1692627;84;21270;-66
2022/07/10 05:05:19;;;;;;;4.10;3.75;;;;;;;28.75;34.19;98681.08;1694008;84;20998;-66
2022/07/10 05:07:46;;;;;;;5.30;4.12;;;;;;;28.64;34.28;98679.12;1696375;84;20944;-67
2022/07/10 05:10:14;;;;;;;5.53;4.25;;;;;;;28.53;34.47;98682.34;1693845;83;21020;-67
2022/07/10 05:12:40;;;;;;;4.50;3.50;;;;;;;28.80;34.36;98680.96;1698584;84;20973;-66
2022/07/10 05:15:09;;;;;;;4.22;3.77;;;;;;;29.39;33.60;98679.85;1695153;84;21294;-66
2022/07/10 05:17:35;;;;;;;3.55;2.80;;;;;;;29.71;33.04;98682.33;1695949;84;21409;-67
2022/07/10 05:20:02;;;;;;;3.67;2.95;;;;;;;29.67;32.62;98683.27;1695928;84;21051;-67
2022/07/10 05:22:30;;;;;;;3.92;3.50;;;;;;;29.49;32.79;98678.22;1697421;83;21084;-68
2022/07/10 05:24:57;;;;;;;5.53;4.03;;;;;;;29.18;33.04;98678.14;1696042;84;21002;-66
2022/07/10 05:27:25;;;;;;;4.00;3.60;;;;;;;28.60;33.92;98675.91;1694038;84;21228;-67
2022/07/10 05:29:51;;;;;;;5.28;4.20;;;;;;;28.30;34.44;98684.73;1694886;84;20898;-66
2022/07/10 05:32:18;;;;;;;7.53;5.67;;;;;;;28.10;34.86;98684.05;1693751;84;20903;-66
2022/07/10 05:34:44;;;;;;;6.50;5.78;;;;;;;27.72;35.33;98687.17;1695929;84;20886;-68
2022/07/10 05:37:12;;;;;;;6.65;5.78;;;;;;;27.29;36.16;98691.99;1694597;84;20946;-66
2022/07/10 05:39:39;;;;;;;6.45;5.67;;;;;;;27.01;36.70;98694.34;1695865;84;21155;-68
2022/07/10 05:42:06;;;;;;;10.50;8.50;;;;;;;26.77;37.06;98695.78;1695862;84;21461;-66
2022/07/10 05:44:33;;;;;;;4.78;4.03;;;;;;;26.73;37.10;98692.78;1696280;84;21519;-67
2022/07/10 05:47:00;;;;;;;2.90;2.65;;;;;;;26.51;37.27;98689.00;1695931;84;21104;-67
2022/07/10 05:49:26;;;;;;;2.47;2.10;;;;;;;26.12;37.77;98696.84;1695937;84;20946;-66
2022/07/10 05:51:52;;;;;;;3.37;2.47;;;;;;;25.83;38.37;98691.12;1693008;84;21322;-66
2022/07/10 05:54:19;;;;;;;2.10;1.80;;;;;;;25.78;38.91;98689.80;1691448;84;20957;-65
2022/07/10 05:56:46;;;;;;;2.22;1.60;;;;;;;26.01;38.83;98693.11;1696130;84;21013;-67
2022/07/10 05:59:12;;;;;;;2.27;2.00;;;;;;;26.43;38.34;98693.73;1693658;84;21054;-67
2022/07/10 06:01:39;;;;;;;2.87;1.50;;;;;;;27.27;37.38;98697.73;1691012;84;21012;-69
2022/07/10 06:04:06;;;;;;;2.17;1.80;;;;;;;28.07;36.04;98696.95;1694806;84;22183;-66
2022/07/10 06:06:32;;;;;;;2.65;1.90;;;;;;;28.45;35.66;98687.16;1695754;84;20929;-64
2022/07/10 06:08:59;;;;;;;4.47;4.08;;;;;;;28.78;34.88;98681.84;1695683;84;21095;-66
2022/07/10 06:11:25;;;;;;;6.30;5.70;;;;;;;28.92;34.25;98678.48;1696011;84;21032;-66
2022/07/10 06:13:52;;;;;;;12.20;9.18;;;;;;;28.95;34.31;98675.14;1696297;84;21040;-66
2022/07/10 06:16:19;;;;;;;17.62;14.75;;;;;;;29.48;33.86;98671.70;1695976;84;21143;-66
2022/07/10 06:18:45;;;;;;;23.38;18.57;;;;;;;29.98;33.48;98668.45;1695864;83;21078;-66
2022/07/10 06:21:12;;;;;;;21.52;18.32;;;;;;;30.09;32.82;98660.75;1696400;84;20973;-67
2022/07/10 06:23:38;;;;;;;21.10;16.73;;;;;;;29.81;33.28;98662.08;1696224;83;20907;-67
2022/07/10 06:26:05;;;;;;;18.77;15.20;;;;;;;29.85;33.50;98663.88;1695894;84;20918;-67
2022/07/10 06:28:34;;;;;;;16.10;12.90;;;;;;;29.80;33.23;98657.74;1695229;84;21240;-67
2022/07/10 06:31:01;;;;;;;17.07;12.05;;;;;;;29.80;33.33;98664.59;1696167;84;20962;-67
2022/07/10 06:33:28;;;;;;;11.93;10.28;;;;;;;29.96;33.30;98659.73;1696354;84;20985;-67
2022/07/10 06:35:56;;;;;;;11.90;10.60;;;;;;;30.20;32.91;98661.27;1696080;83;21049;-67
2022/07/10 06:38:23;;;;;;;9.95;7.42;;;;;;;30.75;32.25;98665.71;1695560;84;20978;-64
2022/07/10 06:40:49;;;;;;;7.97;6.62;;;;;;;31.28;31.47;98663.50;1695774;84;21495;-68
2022/07/10 06:43:16;;;;;;;9.08;6.45;;;;;;;31.55;30.97;98667.83;1694799;84;21716;-68
2022/07/10 06:45:42;;;;;;;5.45;4.90;;;;;;;31.64;30.37;98665.32;1695765;84;20977;-68
2022/07/10 06:48:10;;;;;;;5.97;5.08;;;;;;;31.61;30.54;98665.16;1695425;84;21570;-68
2022/07/10 06:50:37;;;;;;;5.75;4.90;;;;;;;31.57;30.49;98671.87;1669876;84;21491;-70
2022/07/10 06:53:04;;;;;;;5.30;4.78;;;;;;;31.43;30.40;98664.92;1688520;84;21148;-67
2022/07/10 06:55:32;;;;;;;6.62;4.90;;;;;;;30.90;30.75;98673.47;1661387;84;21058;-67
2022/07/10 06:57:58;;;;;;;3.98;3.62;;;;;;;30.29;31.56;98671.72;1690609;84;21045;-67
2022/07/10 07:00:25;;;;;;;3.70;3.40;;;;;;;29.71;31.93;98671.92;1692154;84;21034;-68
2022/07/10 07:02:52;;;;;;;3.10;2.80;;;;;;;29.13;32.76;98669.23;1695795;84;21522;-67
2022/07/10 07:05:18;;;;;;;3.72;2.80;;;;;;;28.86;33.18;98672.08;1695691;84;22062;-67
2022/07/10 07:07:45;;;;;;;3.45;2.75;;;;;;;28.70;33.83;98668.88;1695603;84;20966;-68
2022/07/10 07:10:12;;;;;;;5.00;4.45;;;;;;;28.67;34.16;98664.02;1695457;84;20914;-67
2022/07/10 07:12:39;;;;;;;7.15;5.55;;;;;;;28.56;33.99;98663.39;1695627;84;20985;-68
2022/07/10 07:15:08;;;;;;;8.40;6.33;;;;;;;28.36;34.42;98655.62;1695936;84;20929;-67
2022/07/10 07:18:07;;;;;;;9.10;6.22;;;;;;;28.29;35.00;98662.05;1692078;84;21257;-68
2022/07/10 07:23:12;;;;;;;8.68;6.22;;;;;;;28.51;35.04;98665.42;1641826;87;20994;-69
2022/07/10 07:25:41;;;;;;;6.72;5.10;;;;;;;28.60;35.07;98663.02;1640893;87;22065;-68
2022/07/10 07:28:10;;;;;;;9.73;5.22;;;;;;;28.63;35.15;98660.25;1633400;87;21060;-69
2022/07/10 07:30:36;;;;;;;5.45;4.12;;;;;;;28.62;34.71;98662.76;1687515;83;21343;-68
2022/07/10 07:33:03;;;;;;;5.45;4.80;;;;;;;28.52;33.67;98661.59;1689834;84;21536;-67
2022/07/10 07:35:30;;;;;;;8.58;5.85;;;;;;;28.40;33.73;98664.02;1696945;84;21012;-68
2022/07/10 07:37:57;;;;;;;6.97;4.90;;;;;;;28.33;33.47;98659.52;1690003;84;21047;-67
2022/07/10 07:40:23;;;;;;;4.30;3.52;;;;;;;28.20;34.05;98661.16;1692674;83;21015;-67
2022/07/10 07:42:51;;;;;;;5.10;4.47;;;;;;;28.16;33.82;98662.86;1694333;84;21122;-67
2022/07/10 07:45:17;;;;;;;5.17;4.67;;;;;;;28.11;34.04;98658.31;1684501;84;21075;-67
2022/07/10 07:47:56;;;;;;;7.08;4.70;;;;;;;28.00;33.80;98656.84;1691894;84;21076;-67
2022/07/10 07:50:26;;;;;;;6.12;5.25;;;;;;;27.68;34.02;98659.66;1691830;83;21074;-68
2022/07/10 07:52:53;;;;;;;8.40;5.70;;;;;;;27.31;34.84;98659.19;1685835;84;21082;-68
2022/07/10 07:55:20;;;;;;;9.68;7.70;;;;;;;27.10;35.63;98658.44;1696716;84;21883;-68
2022/07/10 07:57:46;;;;;;;8.83;6.00;;;;;;;26.99;35.78;98664.60;1695624;84;21038;-67
2022/07/10 08:00:17;;;;;;;5.83;3.85;;;;;;;26.94;36.12;98664.13;1691455;83;20971;-68
2022/07/10 08:02:43;;;;;;;6.55;5.00;;;;;;;27.25;35.52;98661.73;1686858;84;21556;-67
2022/07/10 08:05:09;;;;;;;3.60;3.25;;;;;;;27.57;34.93;98655.48;1693154;84;21600;-68
2022/07/10 08:07:47;;;;;;;2.92;2.50;;;;;;;28.05;34.28;98651.31;1697331;84;21161;-67
2022/07/10 08:10:17;;;;;;;3.20;2.90;;;;;;;28.67;33.95;98647.59;1694436;84;20996;-66
2022/07/10 08:12:45;;;;;;;2.80;2.12;;;;;;;29.16;33.21;98642.05;1695854;84;20966;-66
2022/07/10 08:15:15;;;;;;;2.25;1.65;;;;;;;29.54;32.61;98646.58;1695115;83;20940;-67
2022/07/10 08:17:43;;;;;;;1.60;1.20;;;;;;;29.75;32.11;98642.19;1692052;84;20952;-67
2022/07/10 08:20:13;;;;;;;3.27;1.32;;;;;;;29.58;30.90;98644.03;1686929;83;21223;-67
2022/07/10 08:22:41;;;;;;;3.70;1.65;;;;;;;29.22;31.31;98644.95;1690143;84;21077;-67
2022/07/10 08:25:08;;;;;;;2.02;1.17;;;;;;;29.02;31.63;98645.39;1696139;84;21126;-67
2022/07/10 08:27:35;;;;;;;1.55;1.45;;;;;;;28.83;32.20;98642.59;1690808;84;20994;-68
2022/07/10 08:30:02;;;;;;;2.05;1.27;;;;;;;28.75;32.78;98648.23;1665436;84;21575;-66
2022/07/10 08:32:29;;;;;;;2.50;1.35;;;;;;;28.64;32.67;98645.47;1672613;84;21250;-66
2022/07/10 08:34:55;;;;;;;2.65;1.80;;;;;;;28.28;32.67;98641.85;1678315;84;20947;-64
2022/07/10 08:37:22;;;;;;;3.58;2.42;;;;;;;27.88;33.14;98645.62;1663823;84;21034;-64
2022/07/10 08:39:49;;;;;;;3.87;2.45;;;;;;;27.52;33.61;98650.11;1679492;84;20962;-65
2022/07/10 08:42:16;;;;;;;3.15;2.00;;;;;;;27.22;34.60;98652.77;1668376;84;21039;-65
2022/07/10 08:44:43;;;;;;;2.58;1.80;;;;;;;26.98;35.13;98653.45;1681700;84;21255;-65
2022/07/10 08:47:12;;;;;;;2.25;1.90;;;;;;;26.83;35.65;98659.92;1669384;84;21031;-66
2022/07/10 08:49:38;;;;;;;4.15;2.25;;;;;;;26.71;35.54;98647.26;1678731;84;21634;-66
2022/07/10 08:52:08;;;;;;;3.15;2.08;;;;;;;26.40;35.38;98651.51;1676869;84;20991;-67
2022/07/10 08:54:37;;;;;;;3.72;3.02;;;;;;;26.06;35.65;98650.80;1679102;84;21014;-67
2022/07/10 08:57:04;;;;;;;3.42;1.90;;;;;;;25.80;36.16;98653.55;1663916;84;21172;-65
2022/07/10 08:59:32;;;;;;;7.80;2.25;;;;;;;25.77;36.38;98648.12;1665987;84;20986;-67
2022/07/10 09:01:59;;;;;;;2.15;2.00;;;;;;;25.86;36.04;98649.14;1671277;84;21097;-67
2022/07/10 09:04:26;;;;;;;3.45;2.30;;;;;;;25.89;36.17;98643.66;1674160;84;21009;-66
2022/07/10 09:06:54;;;;;;;4.85;2.85;;;;;;;25.95;35.85;98639.75;1667949;84;21084;-66
2022/07/10 09:09:21;;;;;;;3.98;3.08;;;;;;;26.02;36.21;98646.47;1669274;84;21826;-67
2022/07/10 09:11:49;;;;;;;5.15;2.72;;;;;;;26.09;36.19;98644.23;1669171;84;37336;-66
2022/07/10 09:14:16;;;;;;;3.35;2.62;;;;;;;26.20;36.51;98640.87;1639728;84;20906;-66
2022/07/10 09:16:45;;;;;;;6.70;3.42;;;;;;;26.38;36.49;98642.81;1680173;84;21535;-67
2022/07/10 09:19:22;;;;;;;3.40;2.17;;;;;;;26.42;36.12;98645.75;1669340;84;21006;-66
2022/07/10 09:21:59;;;;;;;2.52;2.33;;;;;;;26.47;36.18;98649.22;1667981;84;21365;-67
2022/07/10 09:24:25;;;;;;;2.95;2.17;;;;;;;26.46;35.96;98654.44;1659477;84;21585;-66
2022/07/10 09:27:09;;;;;;;1.55;1.10;;;;;;;26.45;35.90;98648.71;1672649;84;20974;-67
2022/07/10 09:29:28;;;;;;;1.87;1.00;;;;;;;26.35;35.06;98655.66;1696569;84;21094;-64
2022/07/10 09:32:00;;;;;;;5.78;0.93;;;;;;;26.14;33.81;98652.37;1699818;84;20963;-64
2022/07/10 09:34:48;;;;;;;1.75;0.90;;;;;;;25.76;33.28;98652.76;1700191;83;21230;-71
2022/07/10 09:37:30;;;;;;;1.77;1.55;;;;;;;25.49;33.48;98653.05;1692367;84;21096;-70
2022/07/10 09:40:03;;;;;;;4.08;1.20;;;;;;;25.25;33.86;98654.31;1695399;84;21009;-74
2022/07/10 09:42:39;;;;;;;2.90;1.70;;;;;;;25.09;33.81;98655.52;1702419;84;21509;-75
2022/07/10 09:45:17;;;;;;;1.42;1.32;;;;;;;24.99;34.15;98650.98;1704568;84;20959;-74
2022/07/10 09:47:58;;;;;;;1.45;1.02;;;;;;;24.96;34.54;98650.18;1697856;84;21226;-65
2022/07/10 09:50:33;;;;;;;1.80;0.90;;;;;;;24.91;34.91;98650.22;1700238;84;20890;-67
2022/07/10 09:53:05;;;;;;;1.65;1.50;;;;;;;24.95;35.48;98649.91;1692711;84;21076;-66
2022/07/10 09:55:35;;;;;;;1.62;1.42;;;;;;;25.20;35.62;98641.28;1704395;84;20924;-66
2022/07/10 09:58:05;;;;;;;1.87;1.20;;;;;;;25.49;35.41;98638.89;1708771;84;21015;-64
2022/07/10 10:00:40;;;;;;;1.85;1.25;;;;;;;25.72;34.43;98630.48;1703451;84;21252;-67
2022/07/10 10:03:08;;;;;;;;;;;;;;;25.91;34.13;98632.73;1709179;84;21488;-66
2022/07/10 10:05:54;;;;;;;7.30;5.95;;;;;;;26.13;33.34;98622.13;1706022;84;20150;-67
2022/07/10 10:08:44;;;;;;;4.67;3.10;;;;;;;26.34;31.46;98615.86;1697461;84;21059;-64
2022/07/10 10:11:15;;;;;;;5.83;3.35;;;;;;;26.41;30.63;98614.94;1697979;84;21005;-66
2022/07/10 10:13:43;;;;;;;2.47;1.80;;;;;;;26.54;30.50;98614.21;1699824;84;21234;-66
2022/07/10 10:16:10;;;;;;;0.80;0.60;;;;;;;26.75;30.33;98608.72;1706719;84;20938;-65
2022/07/10 10:20:36;;;;;;;0.65;0.62;;;;;;;26.96;29.92;98614.16;1708752;84;20947;-66
2022/07/10 10:21:07;;;;;;;1.10;0.50;;;;;;;27.13;29.21;98610.89;1704884;84;20982;-66
2022/07/10 10:23:34;;;;;;;1.05;0.50;;;;;;;27.29;28.98;98607.34;1673736;84;20994;-64
2022/07/10 10:26:01;;;;;;;0.47;0.47;;;;;;;27.36;28.38;98603.66;1665206;85;21274;-65
2022/07/10 10:28:28;;;;;;;1.02;0.53;;;;;;;27.40;27.99;98602.00;1699294;84;20956;-65
2022/07/10 10:30:59;;;;;;;0.72;0.60;;;;;;;27.40;27.69;98602.00;1699792;84;20932;-64
2022/07/10 10:33:39;;;;;;;0.50;0.50;;;;;;;27.47;27.67;98607.33;1691374;84;21020;-65
2022/07/10 10:36:07;;;;;;;0.60;0.60;;;;;;;27.53;27.50;98606.68;1700131;84;20869;-67
2022/07/10 10:38:58;;;;;;;0.80;0.80;;;;;;;27.44;27.98;98613.93;1700285;84;21278;-66
2022/07/10 10:41:41;;;;;;;2.00;0.88;;;;;;;27.47;28.01;98619.61;1699690;84;20928;-67
2022/07/10 10:44:16;;;;;;;1.10;1.00;;;;;;;27.54;28.17;98619.20;1692707;84;21011;-64
2022/07/10 10:47:01;;;;;;;2.35;2.15;;;;;;;27.53;28.25;98625.80;1699714;84;20956;-67
2022/07/10 10:49:25;;;;;;;3.50;3.20;;;;;;;27.42;28.47;98625.72;1693990;83;20932;-64
2022/07/10 10:52:07;;;;;;;2.98;2.67;;;;;;;27.36;29.15;98636.44;1690008;84;21252;-64
2022/07/10 10:55:01;;;;;;;2.37;2.10;;;;;;;27.19;29.41;98641.10;1690407;84;20952;-67
2022/07/10 10:57:47;;;;;;;3.35;2.05;;;;;;;26.97;29.46;98646.36;1696377;84;21511;-64
2022/07/10 11:00:14;;;;;;;1.52;1.05;;;;;;;26.75;29.99;98648.85;1686973;84;20931;-65
2022/07/10 11:02:45;;;;;;;1.27;1.15;;;;;;;26.59;29.94;98654.26;1693414;84;21088;-66
2022/07/10 11:05:18;;;;;;;1.20;1.10;;;;;;;26.44;30.78;98652.53;1696412;84;21187;-65
2022/07/10 11:07:59;;;;;;;0.98;0.70;;;;;;;26.36;31.35;98652.63;1694574;84;21002;-66
2022/07/10 11:10:31;;;;;;;3.67;2.05;;;;;;;26.28;31.59;98653.28;1689604;83;20873;-64
2022/07/10 11:13:07;;;;;;;6.50;4.08;;;;;;;26.36;31.73;98651.27;1695129;84;20984;-65
2022/07/10 11:15:37;;;;;;;5.22;4.45;;;;;;;26.41;31.26;98649.59;1693144;84;21468;-65
2022/07/10 11:18:08;;;;;;;5.62;4.37;;;;;;;26.40;31.72;98647.42;1695601;84;21225;-64
2022/07/10 11:20:46;;;;;;;7.58;5.12;;;;;;;26.49;33.09;98641.55;1694415;84;20955;-64
2022/07/10 11:23:54;;;;;;;4.10;3.65;;;;;;;26.49;34.79;98640.77;1681591;84;20984;-65
2022/07/10 11:26:31;;;;;;;4.37;3.98;;;;;;;26.56;35.97;98642.57;1691321;84;20940;-66
2022/07/10 11:29:00;;;;;;;3.87;3.42;;;;;;;26.73;36.70;98636.86;1660611;84;21090;-66
2022/07/10 11:31:27;;;;;;;4.20;1.65;;;;;;;26.78;36.38;98645.00;1684203;84;21263;-66
2022/07/10 11:33:55;;;;;;;2.52;1.40;;;;;;;26.71;33.63;98644.53;1684244;84;21019;-66
2022/07/10 11:36:31;;;;;;;2.67;1.77;;;;;;;26.52;32.94;98642.34;1683626;83;20935;-66
2022/07/10 11:39:04;;;;;;;4.83;3.67;;;;;;;26.37;33.04;98639.81;1681089;85;20975;-65
2022/07/10 11:41:31;;;;;;;5.78;4.85;;;;;;;26.29;32.80;98641.83;1684311;85;21029;-65
2022/07/10 11:44:02;;;;;;;11.10;5.80;;;;;;;26.26;33.00;98638.32;1684313;85;21232;-65
2022/07/10 11:46:33;;;;;;;7.92;6.53;;;;;;;26.13;33.08;98637.12;1683920;84;21022;-64